createdAt,value
2022-11-02T00:00:37.914Z,1010.02
2022-11-02T00:01:38.038Z,1009.99
2022-11-02T00:02:37.989Z,1009.97
2022-11-02T00:03:37.882Z,1009.89
2022-11-02T00:04:37.870Z,1009.99
2022-11-02T00:05:37.879Z,1009.99
2022-11-02T00:06:37.863Z,1010.03
2022-11-02T00:07:37.838Z,1010.07
2022-11-02T00:08:37.827Z,1009.91
2022-11-02T00:09:37.812Z,1009.96
2022-11-02T00:10:37.836Z,1009.98
2022-11-02T00:11:37.801Z,1009.90
2022-11-02T00:12:37.790Z,1009.96
2022-11-02T00:13:37.771Z,1009.92
2022-11-02T00:14:37.761Z,1009.95
2022-11-02T00:15:37.752Z,1009.94
2022-11-02T00:16:37.733Z,1009.94
2022-11-02T00:17:37.718Z,1009.91
2022-11-02T00:18:37.743Z,1009.92
2022-11-02T00:19:37.696Z,1010.00
2022-11-02T00:20:37.693Z,1009.94
2022-11-02T00:21:37.706Z,1009.95
2022-11-02T00:22:37.689Z,1009.92
2022-11-02T00:23:37.679Z,1010.03
2022-11-02T00:24:37.645Z,1010.00
2022-11-02T00:25:37.638Z,1009.95
2022-11-02T00:26:37.644Z,1010.02
2022-11-02T00:27:37.611Z,1009.94
2022-11-02T00:28:37.603Z,1009.92
2022-11-02T00:29:37.584Z,1009.73
2022-11-02T00:30:37.570Z,1009.89
2022-11-02T00:31:37.583Z,1009.87
2022-11-02T00:32:37.571Z,1009.85
2022-11-02T00:33:37.547Z,1009.74
2022-11-02T00:34:37.536Z,1009.86
2022-11-02T00:35:37.526Z,1009.83
2022-11-02T00:36:37.514Z,1009.83
2022-11-02T00:37:37.513Z,1009.94
2022-11-02T00:38:37.506Z,1009.97
2022-11-02T00:39:37.478Z,1009.92
2022-11-02T00:40:37.466Z,1009.94
2022-11-02T00:41:37.465Z,1009.97
2022-11-02T00:42:37.459Z,1009.94
2022-11-02T00:43:37.426Z,1009.97
2022-11-02T00:44:37.428Z,1009.93
2022-11-02T00:45:37.417Z,1009.92
2022-11-02T00:46:37.423Z,1009.96
2022-11-02T00:47:37.463Z,1010.05
2022-11-02T00:48:37.378Z,1009.99
2022-11-02T00:49:37.360Z,1009.98
2022-11-02T00:50:37.358Z,1010.02
2022-11-02T00:51:37.354Z,1010.02
2022-11-02T00:52:37.333Z,1009.97
2022-11-02T00:53:37.331Z,1009.94
2022-11-02T00:54:37.313Z,1009.94
2022-11-02T00:55:37.314Z,1010.08
2022-11-02T00:56:37.301Z,1010.08
2022-11-02T00:57:37.269Z,1010.06
2022-11-02T00:58:37.305Z,1010.06
2022-11-02T00:59:37.257Z,1010.12
2022-11-02T01:00:37.276Z,1009.98
2022-11-02T01:01:37.378Z,1010.09
2022-11-02T01:02:37.417Z,1010.18
2022-11-02T01:03:37.218Z,1010.16
2022-11-02T01:04:37.203Z,1010.14
2022-11-02T01:05:37.202Z,1010.12
2022-11-02T01:06:37.182Z,1010.15
2022-11-02T01:07:37.167Z,1010.08
2022-11-02T01:08:37.179Z,1010.15
2022-11-02T01:09:37.137Z,1010.12
2022-11-02T01:10:37.135Z,1010.28
2022-11-02T01:11:37.153Z,1010.15
2022-11-02T01:12:37.110Z,1010.21
2022-11-02T01:13:37.096Z,1010.14
2022-11-02T01:14:37.118Z,1010.12
2022-11-02T01:15:37.095Z,1010.25
2022-11-02T01:16:37.102Z,1010.23
2022-11-02T01:17:37.064Z,1010.08
2022-11-02T01:18:37.050Z,1010.12
2022-11-02T01:19:37.034Z,1010.11
2022-11-02T01:20:37.022Z,1010.06
2022-11-02T01:21:37.004Z,1010.15
2022-11-02T01:22:37.001Z,1010.22
2022-11-02T01:23:36.981Z,1010.14
2022-11-02T01:24:37.002Z,1010.05
2022-11-02T01:25:36.988Z,1010.05
2022-11-02T01:26:36.947Z,1010.05
2022-11-02T01:27:36.944Z,1010.07
2022-11-02T01:28:36.926Z,1010.09
2022-11-02T01:29:36.917Z,1010.07
2022-11-02T01:30:36.942Z,1009.99
2022-11-02T01:31:36.892Z,1010.02
2022-11-02T01:32:36.880Z,1010.02
2022-11-02T01:33:36.893Z,1010.01
2022-11-02T01:34:36.870Z,1010.00
2022-11-02T01:35:36.857Z,1009.96
2022-11-02T01:36:36.851Z,1009.97
2022-11-02T01:37:36.831Z,1010.02
2022-11-02T01:38:36.824Z,1010.01
2022-11-02T01:39:36.805Z,1010.01
2022-11-02T01:40:36.800Z,1010.02
2022-11-02T01:41:36.802Z,1010.01
2022-11-02T01:42:36.770Z,1010.06
2022-11-02T01:43:36.761Z,1010.09
2022-11-02T01:44:36.762Z,1010.02
2022-11-02T01:45:36.744Z,1010.05
2022-11-02T01:46:36.750Z,1009.98
2022-11-02T01:47:36.723Z,1010.03
2022-11-02T01:48:36.710Z,1010.04
2022-11-02T01:49:36.710Z,1010.01
2022-11-02T01:50:36.687Z,1010.06
2022-11-02T01:51:36.679Z,1010.04
2022-11-02T01:52:36.660Z,1009.95
2022-11-02T01:53:36.664Z,1010.02
2022-11-02T01:54:36.639Z,1010.05
2022-11-02T01:55:36.638Z,1010.00
2022-11-02T01:56:36.624Z,1010.00
2022-11-02T01:57:36.624Z,1010.00
2022-11-02T01:58:36.607Z,1010.02
2022-11-02T01:59:36.579Z,1009.96
2022-11-02T02:00:36.581Z,1010.00
2022-11-02T02:01:36.637Z,1010.01
2022-11-02T02:02:36.675Z,1010.03
2022-11-02T02:03:36.543Z,1010.07
2022-11-02T02:04:36.535Z,1010.10
2022-11-02T02:05:36.523Z,1010.10
2022-11-02T02:06:36.517Z,1010.15
2022-11-02T02:07:36.503Z,1010.19
2022-11-02T02:08:36.506Z,1010.25
2022-11-02T02:09:36.480Z,1010.25
2022-11-02T02:10:36.476Z,1010.25
2022-11-02T02:11:36.493Z,1010.26
2022-11-02T02:12:36.447Z,1010.24
2022-11-02T02:13:36.434Z,1010.24
2022-11-02T02:14:36.425Z,1010.25
2022-11-02T02:15:36.429Z,1010.35
2022-11-02T02:16:36.463Z,1010.27
2022-11-02T02:17:36.400Z,1010.33
2022-11-02T02:18:36.410Z,1010.36
2022-11-02T02:19:36.376Z,1010.34
2022-11-02T02:20:36.354Z,1010.32
2022-11-02T02:21:36.343Z,1010.36
2022-11-02T02:22:36.333Z,1010.36
2022-11-02T02:23:36.322Z,1010.36
2022-11-02T02:24:36.308Z,1010.37
2022-11-02T02:25:36.330Z,1010.36
2022-11-02T02:26:36.311Z,1010.34
2022-11-02T02:27:36.287Z,1010.32
2022-11-02T02:28:36.282Z,1010.33
2022-11-02T02:29:36.259Z,1010.28
2022-11-02T02:30:36.248Z,1010.31
2022-11-02T02:31:36.243Z,1010.27
2022-11-02T02:32:36.232Z,1010.23
2022-11-02T02:33:36.234Z,1010.30
2022-11-02T02:34:36.224Z,1010.23
2022-11-02T02:35:36.206Z,1010.24
2022-11-02T02:36:36.366Z,1010.20
2022-11-02T02:37:36.168Z,1010.28
2022-11-02T02:38:36.181Z,1010.21
2022-11-02T02:39:36.138Z,1010.24
2022-11-02T02:40:36.126Z,1010.26
2022-11-02T02:41:36.123Z,1010.17
2022-11-02T02:42:36.110Z,1010.26
2022-11-02T02:43:36.110Z,1010.17
2022-11-02T02:44:36.128Z,1010.23
2022-11-02T02:45:36.084Z,1010.26
2022-11-02T02:46:39.189Z,1010.21
2022-11-02T02:47:36.057Z,1010.23
2022-11-02T02:48:36.063Z,1010.29
2022-11-02T02:49:36.029Z,1010.21
2022-11-02T02:50:36.039Z,1010.25
2022-11-02T02:51:36.011Z,1010.21
2022-11-02T02:52:36.019Z,1010.21
2022-11-02T02:53:36.006Z,1010.19
2022-11-02T02:54:35.988Z,1010.20
2022-11-02T02:55:35.981Z,1010.14
2022-11-02T02:56:36.092Z,1010.17
2022-11-02T02:57:35.956Z,1010.24
2022-11-02T02:58:35.954Z,1010.17
2022-11-02T02:59:35.937Z,1010.28
2022-11-02T03:00:35.920Z,1010.21
2022-11-02T03:01:36.122Z,1010.20
2022-11-02T03:02:36.024Z,1010.24
2022-11-02T03:03:35.880Z,1010.15
2022-11-02T03:04:35.867Z,1010.12
2022-11-02T03:05:35.859Z,1010.14
2022-11-02T03:06:35.979Z,1010.09
2022-11-02T03:07:35.825Z,1010.12
2022-11-02T03:08:35.814Z,1010.14
2022-11-02T03:09:35.815Z,1010.14
2022-11-02T03:10:35.796Z,1010.14
2022-11-02T03:11:35.899Z,1010.13
2022-11-02T03:12:35.785Z,1010.14
2022-11-02T03:13:35.785Z,1010.18
2022-11-02T03:14:35.757Z,1010.13
2022-11-02T03:15:35.754Z,1010.16
2022-11-02T03:16:35.837Z,1010.12
2022-11-02T03:17:35.736Z,1010.20
2022-11-02T03:18:35.726Z,1010.22
2022-11-02T03:19:35.701Z,1010.21
2022-11-02T03:20:35.690Z,1010.20
2022-11-02T03:21:35.741Z,1010.25
2022-11-02T03:22:35.688Z,1010.24
2022-11-02T03:23:35.652Z,1010.23
2022-11-02T03:24:35.652Z,1010.25
2022-11-02T03:25:35.634Z,1010.29
2022-11-02T03:26:35.724Z,1010.31
2022-11-02T03:27:35.628Z,1010.36
2022-11-02T03:28:35.605Z,1010.31
2022-11-02T03:29:35.588Z,1010.37
2022-11-02T03:30:35.579Z,1010.39
2022-11-02T03:31:35.626Z,1010.43
2022-11-02T03:32:35.557Z,1010.49
2022-11-02T03:33:35.574Z,1010.51
2022-11-02T03:34:35.543Z,1010.55
2022-11-02T03:35:35.530Z,1010.53
2022-11-02T03:36:35.580Z,1010.57
2022-11-02T03:37:35.503Z,1010.53
2022-11-02T03:38:35.529Z,1010.52
2022-11-02T03:39:35.480Z,1010.50
2022-11-02T03:40:35.473Z,1010.52
2022-11-02T03:41:35.474Z,1010.49
2022-11-02T03:42:35.454Z,1010.57
2022-11-02T03:43:35.431Z,1010.55
2022-11-02T03:44:35.440Z,1010.50
2022-11-02T03:45:35.420Z,1010.52
2022-11-02T03:46:35.438Z,1010.51
2022-11-02T03:47:35.396Z,1010.49
2022-11-02T03:48:35.396Z,1010.56
2022-11-02T03:49:35.382Z,1010.59
2022-11-02T03:50:35.354Z,1010.64
2022-11-02T03:51:35.380Z,1010.60
2022-11-02T03:52:35.344Z,1010.67
2022-11-02T03:53:35.338Z,1010.65
2022-11-02T03:54:35.336Z,1010.62
2022-11-02T03:55:35.315Z,1010.60
2022-11-02T03:56:35.332Z,1010.55
2022-11-02T03:57:35.327Z,1010.57
2022-11-02T03:58:35.265Z,1010.57
2022-11-02T03:59:35.255Z,1010.65
2022-11-02T04:00:35.292Z,1010.58
2022-11-02T04:01:35.495Z,1010.65
2022-11-02T04:02:35.297Z,1010.63
2022-11-02T04:03:35.225Z,1010.63
2022-11-02T04:04:35.211Z,1010.62
2022-11-02T04:05:35.208Z,1010.63
2022-11-02T04:06:35.232Z,1010.61
2022-11-02T04:07:35.211Z,1010.61
2022-11-02T04:08:35.197Z,1010.66
2022-11-02T04:09:35.153Z,1010.66
2022-11-02T04:10:35.165Z,1010.66
2022-11-02T04:11:35.175Z,1010.70
2022-11-02T04:12:35.122Z,1010.73
2022-11-02T04:13:35.109Z,1010.69
2022-11-02T04:14:35.115Z,1010.71
2022-11-02T04:15:35.092Z,1010.76
2022-11-02T04:16:35.082Z,1010.72
2022-11-02T04:17:35.067Z,1010.73
2022-11-02T04:18:35.049Z,1010.78
2022-11-02T04:19:35.071Z,1010.78
2022-11-02T04:20:35.034Z,1010.86
2022-11-02T04:21:35.012Z,1010.84
2022-11-02T04:22:35.011Z,1010.84
2022-11-02T04:23:35.001Z,1010.80
2022-11-02T04:24:34.980Z,1010.89
2022-11-02T04:25:34.982Z,1010.96
2022-11-02T04:26:35.002Z,1011.00
2022-11-02T04:27:34.965Z,1011.00
2022-11-02T04:28:34.959Z,1010.99
2022-11-02T04:29:34.944Z,1011.06
2022-11-02T04:30:34.918Z,1010.95
2022-11-02T04:31:34.911Z,1011.03
2022-11-02T04:32:34.900Z,1011.06
2022-11-02T04:33:34.910Z,1011.06
2022-11-02T04:34:34.883Z,1011.01
2022-11-02T04:35:34.875Z,1011.10
2022-11-02T04:36:34.855Z,1011.12
2022-11-02T04:37:34.849Z,1011.14
2022-11-02T04:38:34.834Z,1011.17
2022-11-02T04:39:34.825Z,1011.16
2022-11-02T04:40:34.831Z,1011.15
2022-11-02T04:41:34.802Z,1011.16
2022-11-02T04:42:34.809Z,1011.19
2022-11-02T04:43:34.800Z,1011.22
2022-11-02T04:44:34.774Z,1011.21
2022-11-02T04:45:34.757Z,1011.24
2022-11-02T04:46:34.752Z,1011.21
2022-11-02T04:47:34.733Z,1011.20
2022-11-02T04:48:34.733Z,1011.22
2022-11-02T04:49:34.733Z,1011.26
2022-11-02T04:50:34.703Z,1011.28
2022-11-02T04:51:34.711Z,1011.30
2022-11-02T04:52:34.672Z,1011.28
2022-11-02T04:53:34.669Z,1011.37
2022-11-02T04:54:34.654Z,1011.36
2022-11-02T04:55:34.656Z,1011.39
2022-11-02T04:56:34.628Z,1011.39
2022-11-02T04:57:34.679Z,1011.45
2022-11-02T04:58:34.636Z,1011.43
2022-11-02T04:59:34.617Z,1011.43
2022-11-02T05:00:34.632Z,1011.42
2022-11-02T05:01:34.714Z,1011.44
2022-11-02T05:02:34.721Z,1011.47
2022-11-02T05:03:34.549Z,1011.45
2022-11-02T05:04:34.545Z,1011.48
2022-11-02T05:05:34.528Z,1011.49
2022-11-02T05:06:34.539Z,1011.51
2022-11-02T05:07:34.525Z,1011.50
2022-11-02T05:08:34.502Z,1011.54
2022-11-02T05:09:34.511Z,1011.59
2022-11-02T05:10:34.483Z,1011.54
2022-11-02T05:11:34.482Z,1011.60
2022-11-02T05:12:34.470Z,1011.58
2022-11-02T05:13:34.459Z,1011.56
2022-11-02T05:14:34.488Z,1011.57
2022-11-02T05:15:34.430Z,1011.57
2022-11-02T05:16:34.428Z,1011.57
2022-11-02T05:17:34.427Z,1011.59
2022-11-02T05:18:34.413Z,1011.59
2022-11-02T05:19:34.379Z,1011.61
2022-11-02T05:20:34.404Z,1011.64
2022-11-02T05:21:34.385Z,1011.68
2022-11-02T05:22:34.348Z,1011.65
2022-11-02T05:23:34.331Z,1011.69
2022-11-02T05:24:34.333Z,1011.70
2022-11-02T05:25:34.320Z,1011.69
2022-11-02T05:26:34.318Z,1011.72
2022-11-02T05:27:34.311Z,1011.67
2022-11-02T05:28:34.294Z,1011.67
2022-11-02T05:29:34.266Z,1011.64
2022-11-02T05:30:34.277Z,1011.73
2022-11-02T05:31:34.253Z,1011.71
2022-11-02T05:32:34.249Z,1011.71
2022-11-02T05:33:34.247Z,1011.74
2022-11-02T05:34:34.241Z,1011.76
2022-11-02T05:35:34.201Z,1011.77
2022-11-02T05:36:34.198Z,1011.81
2022-11-02T05:37:34.181Z,1011.85
2022-11-02T05:38:34.232Z,1011.82
2022-11-02T05:39:34.164Z,1011.89
2022-11-02T05:40:34.176Z,1011.89
2022-11-02T05:41:34.148Z,1011.88
2022-11-02T05:42:34.135Z,1011.85
2022-11-02T05:43:34.115Z,1011.86
2022-11-02T05:44:34.140Z,1011.85
2022-11-02T05:45:34.108Z,1011.89
2022-11-02T05:46:34.112Z,1011.84
2022-11-02T05:47:34.087Z,1011.91
2022-11-02T05:48:34.064Z,1011.88
2022-11-02T05:49:34.052Z,1011.91
2022-11-02T05:50:34.137Z,1011.87
2022-11-02T05:51:34.041Z,1011.89
2022-11-02T05:52:34.030Z,1011.88
2022-11-02T05:53:34.166Z,1011.88
2022-11-02T05:54:34.040Z,1011.86
2022-11-02T05:55:33.990Z,1011.86
2022-11-02T05:56:33.981Z,1011.89
2022-11-02T05:57:33.989Z,1011.91
2022-11-02T05:58:33.996Z,1011.88
2022-11-02T05:59:33.942Z,1011.89
2022-11-02T06:00:33.947Z,1011.93
2022-11-02T06:01:34.117Z,1011.98
2022-11-02T06:02:33.929Z,1011.98
2022-11-02T06:03:33.898Z,1011.98
2022-11-02T06:04:33.935Z,1011.97
2022-11-02T06:05:34.062Z,1012.00
2022-11-02T06:06:33.870Z,1012.00
2022-11-02T06:07:33.873Z,1012.02
2022-11-02T06:08:33.872Z,1012.05
2022-11-02T06:09:33.850Z,1012.06
2022-11-02T06:10:33.831Z,1012.13
2022-11-02T06:11:33.819Z,1012.15
2022-11-02T06:12:33.833Z,1012.15
2022-11-02T06:13:33.822Z,1012.21
2022-11-02T06:14:33.807Z,1012.20
2022-11-02T06:15:33.765Z,1012.17
2022-11-02T06:16:33.761Z,1012.22
2022-11-02T06:17:33.774Z,1012.23
2022-11-02T06:18:33.773Z,1012.21
2022-11-02T06:19:33.744Z,1012.30
2022-11-02T06:20:33.730Z,1012.26
2022-11-02T06:21:33.709Z,1012.26
2022-11-02T06:22:33.693Z,1012.32
2022-11-02T06:23:33.698Z,1012.31
2022-11-02T06:24:33.802Z,1012.35
2022-11-02T06:25:33.684Z,1012.28
2022-11-02T06:26:33.661Z,1012.28
2022-11-02T06:27:33.658Z,1012.36
2022-11-02T06:28:33.656Z,1012.36
2022-11-02T06:29:33.620Z,1012.41
2022-11-02T06:30:33.623Z,1012.42
2022-11-02T06:31:33.604Z,1012.41
2022-11-02T06:32:33.602Z,1012.47
2022-11-02T06:33:33.626Z,1012.49
2022-11-02T06:34:33.649Z,1012.50
2022-11-02T06:35:34.163Z,1012.47
2022-11-02T06:36:33.540Z,1012.51
2022-11-02T06:37:33.565Z,1012.53
2022-11-02T06:38:33.548Z,1012.58
2022-11-02T06:39:33.603Z,1012.55
2022-11-02T06:40:33.505Z,1012.57
2022-11-02T06:41:33.511Z,1012.62
2022-11-02T06:42:36.917Z,1012.61
2022-11-02T06:43:34.465Z,1012.66
2022-11-02T06:44:33.518Z,1012.68
2022-11-02T06:45:33.485Z,1012.67
2022-11-02T06:46:33.445Z,1012.76
2022-11-02T06:47:33.431Z,1012.76
2022-11-02T06:48:35.638Z,1012.79
2022-11-02T06:49:33.419Z,1012.79
2022-11-02T06:50:33.412Z,1012.85
2022-11-02T06:51:33.388Z,1012.82
2022-11-02T06:52:33.366Z,1012.87
2022-11-02T06:53:33.367Z,1012.89
2022-11-02T06:54:33.407Z,1012.89
2022-11-02T06:55:33.360Z,1012.92
2022-11-02T06:56:33.343Z,1012.93
2022-11-02T06:57:33.314Z,1012.82
2022-11-02T06:58:33.294Z,1012.92
2022-11-02T06:59:33.290Z,1012.85
2022-11-02T07:00:33.456Z,1012.88
2022-11-02T07:01:33.473Z,1012.89
2022-11-02T07:02:33.415Z,1012.85
2022-11-02T07:03:33.261Z,1012.89
2022-11-02T07:04:33.258Z,1012.91
2022-11-02T07:05:33.234Z,1012.93
2022-11-02T07:06:33.234Z,1012.98
2022-11-02T07:07:33.195Z,1012.98
2022-11-02T07:08:33.200Z,1012.98
2022-11-02T07:09:33.193Z,1013.00
2022-11-02T07:10:33.178Z,1013.04
2022-11-02T07:11:33.161Z,1013.06
2022-11-02T07:12:33.181Z,1013.11
2022-11-02T07:13:33.177Z,1013.15
2022-11-02T07:14:33.145Z,1013.17
2022-11-02T07:15:33.136Z,1013.21
2022-11-02T07:16:33.147Z,1013.17
2022-11-02T07:17:33.111Z,1013.17
2022-11-02T07:18:33.113Z,1013.19
2022-11-02T07:19:33.090Z,1013.25
2022-11-02T07:20:33.070Z,1013.22
2022-11-02T07:21:33.097Z,1013.15
2022-11-02T07:22:33.077Z,1013.18
2022-11-02T07:23:33.056Z,1013.20
2022-11-02T07:24:33.033Z,1013.17
2022-11-02T07:25:33.009Z,1013.23
2022-11-02T07:26:33.023Z,1013.21
2022-11-02T07:27:32.987Z,1013.23
2022-11-02T07:28:32.991Z,1013.25
2022-11-02T07:29:33.018Z,1013.26
2022-11-02T07:30:32.952Z,1013.28
2022-11-02T07:31:32.963Z,1013.28
2022-11-02T07:32:32.951Z,1013.31
2022-11-02T07:33:33.205Z,1013.29
2022-11-02T07:34:33.005Z,1013.32
2022-11-02T07:35:32.982Z,1013.29
2022-11-02T07:36:32.899Z,1013.30
2022-11-02T07:37:32.904Z,1013.28
2022-11-02T07:38:32.993Z,1013.31
2022-11-02T07:39:32.857Z,1013.32
2022-11-02T07:40:32.944Z,1013.38
2022-11-02T07:41:32.841Z,1013.40
2022-11-02T07:42:32.848Z,1013.36
2022-11-02T07:43:32.812Z,1013.37
2022-11-02T07:44:32.852Z,1013.41
2022-11-02T07:45:32.810Z,1013.41
2022-11-02T07:46:32.785Z,1013.42
2022-11-02T07:47:32.784Z,1013.48
2022-11-02T07:48:32.773Z,1013.43
2022-11-02T07:49:32.749Z,1013.46
2022-11-02T07:50:32.754Z,1013.45
2022-11-02T07:51:32.761Z,1013.47
2022-11-02T07:52:32.725Z,1013.49
2022-11-02T07:53:32.702Z,1013.48
2022-11-02T07:54:32.709Z,1013.54
2022-11-02T07:55:32.727Z,1013.51
2022-11-02T07:56:32.686Z,1013.53
2022-11-02T07:57:32.663Z,1013.54
2022-11-02T07:58:32.639Z,1013.61
2022-11-02T07:59:32.628Z,1013.58
2022-11-02T08:00:32.627Z,1013.66
2022-11-02T08:01:32.693Z,1013.65
2022-11-02T08:02:32.623Z,1013.70
2022-11-02T08:03:32.628Z,1013.71
2022-11-02T08:04:32.608Z,1013.70
2022-11-02T08:05:32.601Z,1013.77
2022-11-02T08:06:32.601Z,1013.73
2022-11-02T08:07:32.564Z,1013.74
2022-11-02T08:08:32.552Z,1013.77
2022-11-02T08:09:32.535Z,1013.73
2022-11-02T08:10:35.539Z,1013.74
2022-11-02T08:11:33.537Z,1013.76
2022-11-02T08:12:32.502Z,1013.74
2022-11-02T08:13:32.999Z,1013.75
2022-11-02T08:14:32.590Z,1013.86
2022-11-02T08:15:32.487Z,1013.88
2022-11-02T08:16:32.449Z,1013.89
2022-11-02T08:17:32.439Z,1013.89
2022-11-02T08:18:32.448Z,1013.87
2022-11-02T08:19:32.419Z,1013.86
2022-11-02T08:20:32.728Z,1013.91
2022-11-02T08:21:32.422Z,1013.97
2022-11-02T08:22:32.383Z,1013.96
2022-11-02T08:23:32.392Z,1013.96
2022-11-02T08:24:32.394Z,1013.91
2022-11-02T08:25:33.181Z,1013.91
2022-11-02T08:26:32.374Z,1013.91
2022-11-02T08:27:32.320Z,1013.93
2022-11-02T08:28:32.351Z,1013.97
2022-11-02T08:29:33.169Z,1013.93
2022-11-02T08:30:32.317Z,1013.97
2022-11-02T08:31:32.326Z,1013.96
2022-11-02T08:32:32.270Z,1014.01
2022-11-02T08:33:32.274Z,1014.05
2022-11-02T08:34:32.273Z,1013.99
2022-11-02T08:35:32.241Z,1014.06
2022-11-02T08:36:32.403Z,1014.04
2022-11-02T08:37:33.196Z,1014.08
2022-11-02T08:38:32.252Z,1014.05
2022-11-02T08:39:32.213Z,1014.09
2022-11-02T08:40:32.185Z,1014.12
2022-11-02T08:41:32.171Z,1014.16
2022-11-02T08:42:32.208Z,1014.08
2022-11-02T08:43:32.184Z,1014.08
2022-11-02T08:44:32.150Z,1014.09
2022-11-02T08:45:48.029Z,1014.18
2022-11-02T08:46:33.124Z,1014.10
2022-11-02T08:47:32.113Z,1014.15
2022-11-02T08:48:32.114Z,1014.13
2022-11-02T08:49:32.122Z,1014.12
2022-11-02T08:50:32.067Z,1014.09
2022-11-02T08:51:32.131Z,1014.13
2022-11-02T08:52:34.583Z,1014.11
2022-11-02T08:53:32.058Z,1014.07
2022-11-02T08:54:32.030Z,1014.11
2022-11-02T08:55:32.020Z,1014.21
2022-11-02T08:56:32.027Z,1014.14
2022-11-02T08:57:32.028Z,1014.22
2022-11-02T08:58:31.998Z,1014.11
2022-11-02T08:59:32.060Z,1014.12
2022-11-02T09:00:32.003Z,1014.17
2022-11-02T09:01:32.088Z,1014.14
2022-11-02T09:02:32.030Z,1014.16
2022-11-02T09:03:31.944Z,1014.25
2022-11-02T09:04:31.921Z,1014.16
2022-11-02T09:05:31.975Z,1014.21
2022-11-02T09:06:31.905Z,1014.22
2022-11-02T09:07:31.912Z,1014.27
2022-11-02T09:08:31.876Z,1014.28
2022-11-02T09:09:31.908Z,1014.31
2022-11-02T09:10:31.866Z,1014.28
2022-11-02T09:11:31.858Z,1014.33
2022-11-02T09:12:31.848Z,1014.33
2022-11-02T09:13:31.923Z,1014.40
2022-11-02T09:14:32.216Z,1014.48
2022-11-02T09:15:31.813Z,1014.38
2022-11-02T09:16:31.816Z,1014.39
2022-11-02T09:17:32.768Z,1014.45
2022-11-02T09:18:32.712Z,1014.40
2022-11-02T09:19:31.848Z,1014.44
2022-11-02T09:20:31.819Z,1014.38
2022-11-02T09:21:31.770Z,1014.41
2022-11-02T09:22:31.728Z,1014.44
2022-11-02T09:23:31.699Z,1014.26
2022-11-02T09:24:31.685Z,1014.37
2022-11-02T09:25:31.701Z,1014.45
2022-11-02T09:26:31.697Z,1014.48
2022-11-02T09:27:31.702Z,1014.45
2022-11-02T09:28:31.780Z,1014.47
2022-11-02T09:29:31.719Z,1014.48
2022-11-02T09:30:31.677Z,1014.57
2022-11-02T09:31:32.730Z,1014.63
2022-11-02T09:32:31.634Z,1014.56
2022-11-02T09:33:31.699Z,1014.50
2022-11-02T09:34:31.642Z,1014.50
2022-11-02T09:35:31.609Z,1014.57
2022-11-02T09:36:31.614Z,1014.55
2022-11-02T09:37:31.563Z,1014.57
2022-11-02T09:38:31.709Z,1014.57
2022-11-02T09:39:31.534Z,1014.65
2022-11-02T09:40:31.504Z,1014.58
2022-11-02T09:41:31.515Z,1014.63
2022-11-02T09:42:31.504Z,1014.49
2022-11-02T09:43:32.860Z,1014.60
2022-11-02T09:44:31.471Z,1014.61
2022-11-02T09:45:31.459Z,1014.60
2022-11-02T09:46:31.472Z,1014.65
2022-11-02T09:48:32.672Z,1014.69
2022-11-02T09:49:31.418Z,1014.66
2022-11-02T09:50:31.427Z,1014.78
2022-11-02T09:51:31.397Z,1014.69
2022-11-02T09:52:31.392Z,1014.57
2022-11-02T09:53:31.391Z,1014.60
2022-11-02T09:54:31.466Z,1014.57
2022-11-02T09:55:31.367Z,1014.57
2022-11-02T09:56:31.364Z,1014.62
2022-11-02T09:57:31.321Z,1014.57
2022-11-02T09:58:31.308Z,1014.37
2022-11-02T09:59:31.295Z,1014.55
2022-11-02T10:00:31.309Z,1014.55
2022-11-02T10:01:31.323Z,1014.57
2022-11-02T10:02:31.298Z,1014.58
2022-11-02T10:03:31.267Z,1014.53
2022-11-02T10:04:31.275Z,1014.60
2022-11-02T10:05:31.248Z,1014.62
2022-11-02T10:06:31.216Z,1014.64
2022-11-02T10:07:31.239Z,1014.69
2022-11-02T10:08:31.216Z,1014.78
2022-11-02T10:09:31.182Z,1014.60
2022-11-02T10:10:31.186Z,1014.67
2022-11-02T10:11:31.241Z,1014.65
2022-11-02T10:12:31.175Z,1014.79
2022-11-02T10:13:31.215Z,1014.72
2022-11-02T10:14:31.152Z,1014.75
2022-11-02T10:15:31.122Z,1014.73
2022-11-02T10:16:31.114Z,1014.86
2022-11-02T10:17:31.111Z,1014.83
2022-11-02T10:18:31.108Z,1014.82
2022-11-02T10:19:31.101Z,1014.74
2022-11-02T10:20:31.063Z,1014.79
2022-11-02T10:21:31.049Z,1014.74
2022-11-02T10:22:31.054Z,1014.90
2022-11-02T10:23:31.030Z,1014.88
2022-11-02T10:24:31.033Z,1014.82
2022-11-02T10:25:31.008Z,1014.58
2022-11-02T10:26:31.201Z,1014.91
2022-11-02T10:27:31.413Z,1014.68
2022-11-02T10:28:31.041Z,1014.73
2022-11-02T10:29:30.968Z,1014.83
2022-11-02T10:30:30.944Z,1014.77
2022-11-02T10:31:31.683Z,1014.72
2022-11-02T10:32:31.004Z,1014.86
2022-11-02T10:33:30.941Z,1014.84
2022-11-02T10:34:30.937Z,1014.78
2022-11-02T10:35:45.435Z,1014.80
2022-11-02T10:36:31.928Z,1014.79
2022-11-02T10:37:30.906Z,1014.69
2022-11-02T10:38:30.879Z,1014.66
2022-11-02T10:39:30.856Z,1014.58
2022-11-02T10:40:30.889Z,1014.63
2022-11-02T10:41:30.844Z,1014.64
2022-11-02T10:42:30.857Z,1014.59
2022-11-02T10:43:30.846Z,1014.51
2022-11-02T10:44:30.806Z,1014.50
2022-11-02T10:45:30.781Z,1014.57
2022-11-02T10:46:30.790Z,1014.66
2022-11-02T10:47:30.759Z,1014.57
2022-11-02T10:48:30.777Z,1014.75
2022-11-02T10:49:30.854Z,1014.59
2022-11-02T10:50:30.809Z,1014.60
2022-11-02T10:51:30.723Z,1014.63
2022-11-02T10:52:30.738Z,1014.66
2022-11-02T10:53:46.418Z,1014.81
2022-11-02T10:54:34.515Z,1014.73
2022-11-02T10:55:30.655Z,1014.65
2022-11-02T10:56:30.663Z,1014.73
2022-11-02T10:57:30.648Z,1014.66
2022-11-02T10:58:30.645Z,1014.71
2022-11-02T10:59:30.612Z,1014.70
2022-11-02T11:00:30.706Z,1014.63
2022-11-02T11:01:30.750Z,1014.67
2022-11-02T11:02:30.587Z,1014.66
2022-11-02T11:03:30.583Z,1014.72
2022-11-02T11:04:30.658Z,1014.71
2022-11-02T11:05:30.571Z,1014.74
2022-11-02T11:06:30.572Z,1014.72
2022-11-02T11:07:30.622Z,1014.68
2022-11-02T11:08:30.525Z,1014.43
2022-11-02T11:09:30.517Z,1014.67
2022-11-02T11:10:30.509Z,1014.68
2022-11-02T11:11:30.518Z,1014.57
2022-11-02T11:12:30.491Z,1014.55
2022-11-02T11:15:47.088Z,1014.58
2022-11-02T11:16:31.457Z,1014.58
2022-11-02T11:19:39.410Z,1014.51
2022-11-02T11:20:31.469Z,1014.61
2022-11-02T11:21:30.377Z,1014.62
2022-11-02T11:22:30.393Z,1014.58
2022-11-02T11:23:30.394Z,1014.59
2022-11-02T11:24:30.431Z,1014.60
2022-11-02T11:25:30.332Z,1014.66
2022-11-02T11:26:30.339Z,1014.64
2022-11-02T11:27:30.316Z,1014.67
2022-11-02T11:28:30.301Z,1014.63
2022-11-02T11:29:30.361Z,1014.61
2022-11-02T11:31:00.511Z,1014.61
2022-11-02T11:31:31.272Z,1014.58
2022-11-02T11:32:30.968Z,1014.60
2022-11-02T11:33:30.238Z,1014.61
2022-11-02T11:34:30.261Z,1014.58
2022-11-02T11:35:30.226Z,1014.63
2022-11-02T11:36:30.246Z,1014.67
2022-11-02T11:37:30.233Z,1014.69
2022-11-02T11:38:30.246Z,1014.55
2022-11-02T11:39:30.178Z,1014.56
2022-11-02T11:40:30.183Z,1014.49
2022-11-02T11:41:30.171Z,1014.57
2022-11-02T11:42:30.259Z,1014.52
2022-11-02T11:43:30.174Z,1014.61
2022-11-02T11:44:30.135Z,1014.59
2022-11-02T11:45:30.107Z,1014.55
2022-11-02T11:46:30.102Z,1014.57
2022-11-02T11:47:30.089Z,1014.65
2022-11-02T11:48:30.088Z,1014.58
2022-11-02T11:49:48.097Z,1014.62
2022-11-02T11:50:31.196Z,1014.73
2022-11-02T11:51:30.045Z,1014.75
2022-11-02T11:52:32.133Z,1014.66
2022-11-02T11:53:30.037Z,1014.58
2022-11-02T11:54:30.069Z,1014.47
2022-11-02T11:55:30.065Z,1014.43
2022-11-02T11:56:29.996Z,1014.43
2022-11-02T11:57:30.042Z,1014.41
2022-11-02T11:58:30.683Z,1014.42
2022-11-02T11:59:29.948Z,1014.38
2022-11-02T12:00:29.961Z,1014.38
2022-11-02T12:01:30.136Z,1014.38
2022-11-02T12:02:30.061Z,1014.41
2022-11-02T12:03:29.922Z,1014.41
2022-11-02T12:04:29.893Z,1014.35
2022-11-02T12:05:29.894Z,1014.24
2022-11-02T12:06:29.954Z,1014.30
2022-11-02T12:07:29.865Z,1014.18
2022-11-02T12:08:29.868Z,1014.28
2022-11-02T12:09:29.863Z,1014.30
2022-11-02T12:10:29.858Z,1014.11